Albany, New York
Current Conditions -  °F | °C
As of 7:16 AM on Monday 24 Nov 2014 (Local Time) from KALB Reporting Station
Light Rain Light Rain  
Wind Chill: 10°   Ceiling: 700
Heat Index: 10°   Visibility: 1mi
Dew Point:   Wind: 6mph
Humidity: 93%   Direction: 230°SW
Pressure: 29.61"   Gusts: NA
Location:  42.65°N, 73.75°W
Report Text: KALB 241216Z 23005KT 1SM R01/P6000FT -RA BR SCT004 BKN007 OVC018 10/09 A2961 RMK AO2 SFC VIS 1 1/2 DZE15RAB15 VIS 1V2 P0002 T01000089
Loading
Personal Weather Stations






























Interactive Weather Map New forecast layout! Learn more

10-Day Weather Forecast

Advertisements
Track Severe Weather on mobile